Airfield :
LOGIN :

Register | Disclaimer

   EN    FR    IT 

 










Legend :    VFR   Marginal VFR   IFR   Intensive IFR   Very Intensive IFR
Visi :
Ceiling :
>= 8 km
>= 3000ft
5 to 8 km
1000 to 3000 ft
1500m to 5 km
500 to 1000 ft
800 to 1500m
200 to 500 ft
< 800m
< 200 ft
Symbols :   Thunderstorms  Fog  Heavy snow  Heavy precipitations  Wind > 20 kt
SIGMETs :     Misc.  Thunderstorms  Icing  Turbulence  Mountain Waves  Volcanic Ashes






- Airport Elevation : 52 ft
- IATA code : IOM


EGNS - Isle of Man

CURRENT METAR :
  • 091720Z 29005KT 250V330 9999 FEW030 07/01 Q1020 NOSIG

EXPIRED METARs :
  • 091650Z VRB03KT 9999 FEW030 07/02 Q1020 NOSIG
  • 091620Z 27004KT 250V310 9999 FEW030 07/02 Q1020 NOSIG
  • 091550Z 28007KT 9999 FEW030 08/03 Q1019 NOSIG
  • 091520Z 30008KT 230V350 9999 FEW030 09/02 Q1019 NOSIG
  • 091450Z 31009KT 250V010 9999 FEW030 09/02 Q1019 NOSIG

TAF TAF EGNS
Valid from the 09 at 18:00 until the 09 at 22:00 UTC


091700Z 0918/0922 27010KT 9999 FEW025



MET'MAP, your aeronautical weather chart ! - Copyright ORBIFLY December 2007 - Disclaimer

ORBIFLY MET'MAP TEAM :

Programming & Development : Alexandra Zaïnal
Concept & original design : Baudouin d'Aumeries
Assistance for programming : Marc-Olivier Méhu
Technical & hardware support : Manuel Goepfert

Contact : metmap@orbifly.com




SOURCES & CREDITS :

   NOAA